sensor_id;sensor_type;location;lat;lon;timestamp;P1;P2;P0
45990;PMS5003;31721;41.740;-88.000;2023-06-14T00:02:26;32;29;
45990;PMS5003;31721;41.740;-88.000;2023-06-14T00:04:54;40;32;
45990;PMS5003;31721;41.740;-88.000;2023-06-14T00:07:32;28;26;
45990;PMS5003;31721;41.740;-88.000;2023-06-14T00:10:02;37;36;
45990;PMS5003;31721;41.740;-88.000;2023-06-14T00:12:30;39;37;
45990;PMS5003;31721;41.740;-88.000;2023-06-14T00:14:57;23;20;
45990;PMS5003;31721;41.740;-88.000;2023-06-14T00:17:25;23;20;
45990;PMS5003;31721;41.740;-88.000;2023-06-14T00:19:53;27;23;
45990;PMS5003;31721;41.740;-88.000;2023-06-14T00:22:20;26;24;
45990;PMS5003;31721;41.740;-88.000;2023-06-14T00:24:48;27;27;
45990;PMS5003;31721;41.740;-88.000;2023-06-14T00:27:16;34;33;
45990;PMS5003;31721;41.740;-88.000;2023-06-14T00:29:44;46;44;
45990;PMS5003;31721;41.740;-88.000;2023-06-14T00:32:11;25;19;
45990;PMS5003;31721;41.740;-88.000;2023-06-14T00:34:39;29;25;
45990;PMS5003;31721;41.740;-88.000;2023-06-14T00:37:07;22;21;
45990;PMS5003;31721;41.740;-88.000;2023-06-14T00:39:36;28;24;
45990;PMS5003;31721;41.740;-88.000;2023-06-14T00:42:04;35;28;
45990;PMS5003;31721;41.740;-88.000;2023-06-14T00:44:33;26;25;
45990;PMS5003;31721;41.740;-88.000;2023-06-14T00:47:01;31;30;
45990;PMS5003;31721;41.740;-88.000;2023-06-14T00:49:29;29;28;
45990;PMS5003;31721;41.740;-88.000;2023-06-14T00:51:58;23;21;
45990;PMS5003;31721;41.740;-88.000;2023-06-14T00:54:26;23;23;
45990;PMS5003;31721;41.740;-88.000;2023-06-14T00:56:53;26;20;
45990;PMS5003;31721;41.740;-88.000;2023-06-14T00:59:21;32;25;
45990;PMS5003;31721;41.740;-88.000;2023-06-14T01:01:49;27;27;
45990;PMS5003;31721;41.740;-88.000;2023-06-14T01:04:17;28;22;
45990;PMS5003;31721;41.740;-88.000;2023-06-14T01:06:48;23;18;
45990;PMS5003;31721;41.740;-88.000;2023-06-14T01:09:27;27;23;
45990;PMS5003;31721;41.740;-88.000;2023-06-14T01:12:02;23;21;
45990;PMS5003;31721;41.740;-88.000;2023-06-14T01:14:38;27;23;
45990;PMS5003;31721;41.740;-88.000;2023-06-14T01:17:08;27;21;
45990;PMS5003;31721;41.740;-88.000;2023-06-14T01:19:36;20;17;
45990;PMS5003;31721;41.740;-88.000;2023-06-14T01:22:04;21;20;
45990;PMS5003;31721;41.740;-88.000;2023-06-14T01:24:32;23;21;
45990;PMS5003;31721;41.740;-88.000;2023-06-14T01:27:00;14;13;
45990;PMS5003;31721;41.740;-88.000;2023-06-14T01:29:29;18;17;
45990;PMS5003;31721;41.740;-88.000;2023-06-14T01:31:58;21;19;
45990;PMS5003;31721;41.740;-88.000;2023-06-14T01:34:27;17;16;
45990;PMS5003;31721;41.740;-88.000;2023-06-14T01:36:55;21;21;
45990;PMS5003;31721;41.740;-88.000;2023-06-14T01:39:25;16;14;
45990;PMS5003;31721;41.740;-88.000;2023-06-14T01:41:56;21;21;
45990;PMS5003;31721;41.740;-88.000;2023-06-14T01:44:25;17;15;
45990;PMS5003;31721;41.740;-88.000;2023-06-14T01:46:54;24;21;
45990;PMS5003;31721;41.740;-88.000;2023-06-14T01:49:22;22;20;
45990;PMS5003;31721;41.740;-88.000;2023-06-14T01:51:51;19;17;
45990;PMS5003;31721;41.740;-88.000;2023-06-14T01:54:20;23;18;
45990;PMS5003;31721;41.740;-88.000;2023-06-14T01:56:48;23;20;
45990;PMS5003;31721;41.740;-88.000;2023-06-14T01:59:18;22;18;
45990;PMS5003;31721;41.740;-88.000;2023-06-14T02:01:46;23;20;
45990;PMS5003;31721;41.740;-88.000;2023-06-14T02:04:15;28;26;
45990;PMS5003;31721;41.740;-88.000;2023-06-14T02:06:44;20;18;
45990;PMS5003;31721;41.740;-88.000;2023-06-14T02:09:12;24;22;
45990;PMS5003;31721;41.740;-88.000;2023-06-14T02:11:41;26;26;
45990;PMS5003;31721;41.740;-88.000;2023-06-14T02:14:09;25;23;
45990;PMS5003;31721;41.740;-88.000;2023-06-14T02:16:37;19;19;
45990;PMS5003;31721;41.740;-88.000;2023-06-14T02:19:06;21;20;
45990;PMS5003;31721;41.740;-88.000;2023-06-14T02:21:35;25;22;
45990;PMS5003;31721;41.740;-88.000;2023-06-14T02:24:03;22;21;
45990;PMS5003;31721;41.740;-88.000;2023-06-14T02:26:31;22;19;
45990;PMS5003;31721;41.740;-88.000;2023-06-14T02:29:00;24;22;
45990;PMS5003;31721;41.740;-88.000;2023-06-14T02:31:29;19;19;
45990;PMS5003;31721;41.740;-88.000;2023-06-14T02:33:59;21;19;
45990;PMS5003;31721;41.740;-88.000;2023-06-14T02:36:28;19;19;
45990;PMS5003;31721;41.740;-88.000;2023-06-14T02:38:56;16;16;
45990;PMS5003;31721;41.740;-88.000;2023-06-14T02:41:25;19;17;
45990;PMS5003;31721;41.740;-88.000;2023-06-14T02:43:54;21;17;
45990;PMS5003;31721;41.740;-88.000;2023-06-14T02:46:23;16;14;
45990;PMS5003;31721;41.740;-88.000;2023-06-14T02:48:51;26;22;
45990;PMS5003;31721;41.740;-88.000;2023-06-14T02:51:19;22;21;
45990;PMS5003;31721;41.740;-88.000;2023-06-14T02:53:47;25;23;
45990;PMS5003;31721;41.740;-88.000;2023-06-14T02:56:15;20;19;
45990;PMS5003;31721;41.740;-88.000;2023-06-14T02:58:43;24;22;
45990;PMS5003;31721;41.740;-88.000;2023-06-14T03:01:10;20;17;
45990;PMS5003;31721;41.740;-88.000;2023-06-14T03:03:38;25;20;
45990;PMS5003;31721;41.740;-88.000;2023-06-14T03:06:06;18;14;
45990;PMS5003;31721;41.740;-88.000;2023-06-14T03:08:34;25;22;
45990;PMS5003;31721;41.740;-88.000;2023-06-14T03:11:02;27;20;
45990;PMS5003;31721;41.740;-88.000;2023-06-14T03:13:30;16;16;
45990;PMS5003;31721;41.740;-88.000;2023-06-14T03:15:58;24;22;
45990;PMS5003;31721;41.740;-88.000;2023-06-14T03:18:27;22;20;
45990;PMS5003;31721;41.740;-88.000;2023-06-14T03:20:56;15;15;
45990;PMS5003;31721;41.740;-88.000;2023-06-14T03:23:24;27;21;
45990;PMS5003;31721;41.740;-88.000;2023-06-14T03:25:51;21;17;
45990;PMS5003;31721;41.740;-88.000;2023-06-14T03:28:19;25;20;
45990;PMS5003;31721;41.740;-88.000;2023-06-14T03:30:48;21;18;
45990;PMS5003;31721;41.740;-88.000;2023-06-14T03:33:15;18;17;
45990;PMS5003;31721;41.740;-88.000;2023-06-14T03:35:43;21;20;
45990;PMS5003;31721;41.740;-88.000;2023-06-14T03:38:11;19;18;
45990;PMS5003;31721;41.740;-88.000;2023-06-14T03:40:38;20;18;
45990;PMS5003;31721;41.740;-88.000;2023-06-14T03:43:05;18;16;
45990;PMS5003;31721;41.740;-88.000;2023-06-14T03:45:33;22;19;
45990;PMS5003;31721;41.740;-88.000;2023-06-14T03:48:01;22;17;
45990;PMS5003;31721;41.740;-88.000;2023-06-14T03:50:29;19;16;
45990;PMS5003;31721;41.740;-88.000;2023-06-14T03:52:57;18;16;
45990;PMS5003;31721;41.740;-88.000;2023-06-14T03:55:25;25;20;
45990;PMS5003;31721;41.740;-88.000;2023-06-14T03:57:53;23;21;
45990;PMS5003;31721;41.740;-88.000;2023-06-14T04:00:20;19;18;
45990;PMS5003;31721;41.740;-88.000;2023-06-14T04:02:48;19;16;
45990;PMS5003;31721;41.740;-88.000;2023-06-14T04:05:16;23;20;
45990;PMS5003;31721;41.740;-88.000;2023-06-14T04:07:44;16;16;
45990;PMS5003;31721;41.740;-88.000;2023-06-14T04:10:12;25;20;
45990;PMS5003;31721;41.740;-88.000;2023-06-14T04:12:40;21;18;
45990;PMS5003;31721;41.740;-88.000;2023-06-14T04:15:09;22;21;
45990;PMS5003;31721;41.740;-88.000;2023-06-14T04:17:37;21;21;
45990;PMS5003;31721;41.740;-88.000;2023-06-14T04:20:06;23;21;
45990;PMS5003;31721;41.740;-88.000;2023-06-14T04:22:34;19;16;
45990;PMS5003;31721;41.740;-88.000;2023-06-14T04:25:03;21;17;
45990;PMS5003;31721;41.740;-88.000;2023-06-14T04:27:31;21;20;
45990;PMS5003;31721;41.740;-88.000;2023-06-14T04:29:59;28;27;
45990;PMS5003;31721;41.740;-88.000;2023-06-14T04:32:28;17;17;
45990;PMS5003;31721;41.740;-88.000;2023-06-14T04:34:56;19;19;
45990;PMS5003;31721;41.740;-88.000;2023-06-14T04:37:25;19;19;
45990;PMS5003;31721;41.740;-88.000;2023-06-14T04:39:53;18;17;
45990;PMS5003;31721;41.740;-88.000;2023-06-14T04:42:21;25;20;
45990;PMS5003;31721;41.740;-88.000;2023-06-14T04:44:49;26;23;
45990;PMS5003;31721;41.740;-88.000;2023-06-14T04:47:17;20;20;
45990;PMS5003;31721;41.740;-88.000;2023-06-14T04:49:44;20;15;
45990;PMS5003;31721;41.740;-88.000;2023-06-14T04:52:11;20;20;
45990;PMS5003;31721;41.740;-88.000;2023-06-14T04:54:40;19;18;
45990;PMS5003;31721;41.740;-88.000;2023-06-14T04:57:08;20;20;
45990;PMS5003;31721;41.740;-88.000;2023-06-14T04:59:36;19;19;
45990;PMS5003;31721;41.740;-88.000;2023-06-14T05:02:04;19;17;
45990;PMS5003;31721;41.740;-88.000;2023-06-14T05:04:32;29;24;
45990;PMS5003;31721;41.740;-88.000;2023-06-14T05:07:00;17;16;
45990;PMS5003;31721;41.740;-88.000;2023-06-14T05:09:27;20;19;
45990;PMS5003;31721;41.740;-88.000;2023-06-14T05:11:55;24;20;
45990;PMS5003;31721;41.740;-88.000;2023-06-14T05:14:23;19;15;
45990;PMS5003;31721;41.740;-88.000;2023-06-14T05:16:51;22;18;
45990;PMS5003;31721;41.740;-88.000;2023-06-14T05:19:19;23;20;
45990;PMS5003;31721;41.740;-88.000;2023-06-14T05:21:47;19;18;
45990;PMS5003;31721;41.740;-88.000;2023-06-14T05:24:15;22;18;
45990;PMS5003;31721;41.740;-88.000;2023-06-14T05:26:42;20;19;
45990;PMS5003;31721;41.740;-88.000;2023-06-14T05:29:11;23;22;
45990;PMS5003;31721;41.740;-88.000;2023-06-14T05:31:39;24;21;
45990;PMS5003;31721;41.740;-88.000;2023-06-14T05:34:07;19;17;
45990;PMS5003;31721;41.740;-88.000;2023-06-14T05:36:34;23;22;
45990;PMS5003;31721;41.740;-88.000;2023-06-14T05:39:02;27;23;
45990;PMS5003;31721;41.740;-88.000;2023-06-14T05:41:29;23;20;
45990;PMS5003;31721;41.740;-88.000;2023-06-14T05:43:57;31;28;
45990;PMS5003;31721;41.740;-88.000;2023-06-14T05:46:25;19;17;
45990;PMS5003;31721;41.740;-88.000;2023-06-14T05:48:53;27;23;
45990;PMS5003;31721;41.740;-88.000;2023-06-14T05:51:22;16;16;
45990;PMS5003;31721;41.740;-88.000;2023-06-14T05:53:50;15;15;
45990;PMS5003;31721;41.740;-88.000;2023-06-14T05:56:18;25;20;
45990;PMS5003;31721;41.740;-88.000;2023-06-14T05:58:46;23;19;
45990;PMS5003;31721;41.740;-88.000;2023-06-14T06:01:14;21;18;
45990;PMS5003;31721;41.740;-88.000;2023-06-14T06:03:42;25;21;
45990;PMS5003;31721;41.740;-88.000;2023-06-14T06:06:10;18;18;
45990;PMS5003;31721;41.740;-88.000;2023-06-14T06:08:38;24;22;
45990;PMS5003;31721;41.740;-88.000;2023-06-14T06:11:05;19;18;
45990;PMS5003;31721;41.740;-88.000;2023-06-14T06:13:33;24;20;
45990;PMS5003;31721;41.740;-88.000;2023-06-14T06:16:01;20;15;
45990;PMS5003;31721;41.740;-88.000;2023-06-14T06:18:29;20;19;
45990;PMS5003;31721;41.740;-88.000;2023-06-14T06:20:56;20;17;
45990;PMS5003;31721;41.740;-88.000;2023-06-14T06:23:24;27;23;
45990;PMS5003;31721;41.740;-88.000;2023-06-14T06:25:52;24;23;
45990;PMS5003;31721;41.740;-88.000;2023-06-14T06:28:19;25;23;
45990;PMS5003;31721;41.740;-88.000;2023-06-14T06:30:47;28;25;
45990;PMS5003;31721;41.740;-88.000;2023-06-14T06:33:14;22;19;
45990;PMS5003;31721;41.740;-88.000;2023-06-14T06:35:42;32;30;
45990;PMS5003;31721;41.740;-88.000;2023-06-14T06:38:10;25;22;
45990;PMS5003;31721;41.740;-88.000;2023-06-14T06:40:38;29;25;
45990;PMS5003;31721;41.740;-88.000;2023-06-14T06:43:06;29;27;
45990;PMS5003;31721;41.740;-88.000;2023-06-14T06:45:34;24;22;
45990;PMS5003;31721;41.740;-88.000;2023-06-14T06:48:01;33;30;
45990;PMS5003;31721;41.740;-88.000;2023-06-14T06:50:30;31;27;
45990;PMS5003;31721;41.740;-88.000;2023-06-14T06:52:58;27;23;
45990;PMS5003;31721;41.740;-88.000;2023-06-14T06:55:25;32;28;
45990;PMS5003;31721;41.740;-88.000;2023-06-14T06:57:53;29;26;
45990;PMS5003;31721;41.740;-88.000;2023-06-14T07:00:22;25;23;
45990;PMS5003;31721;41.740;-88.000;2023-06-14T07:02:49;34;31;
45990;PMS5003;31721;41.740;-88.000;2023-06-14T07:05:17;25;22;
45990;PMS5003;31721;41.740;-88.000;2023-06-14T07:07:45;32;26;
45990;PMS5003;31721;41.740;-88.000;2023-06-14T07:10:13;35;28;
45990;PMS5003;31721;41.740;-88.000;2023-06-14T07:12:40;29;26;
45990;PMS5003;31721;41.740;-88.000;2023-06-14T07:15:08;27;23;
45990;PMS5003;31721;41.740;-88.000;2023-06-14T07:17:37;34;32;
45990;PMS5003;31721;41.740;-88.000;2023-06-14T07:20:05;30;26;
45990;PMS5003;31721;41.740;-88.000;2023-06-14T07:22:34;31;27;
45990;PMS5003;31721;41.740;-88.000;2023-06-14T07:25:02;33;30;
45990;PMS5003;31721;41.740;-88.000;2023-06-14T07:27:30;31;29;
45990;PMS5003;31721;41.740;-88.000;2023-06-14T07:29:57;34;32;
45990;PMS5003;31721;41.740;-88.000;2023-06-14T07:32:25;34;30;
45990;PMS5003;31721;41.740;-88.000;2023-06-14T07:34:53;31;27;
45990;PMS5003;31721;41.740;-88.000;2023-06-14T07:37:21;29;28;
45990;PMS5003;31721;41.740;-88.000;2023-06-14T07:39:48;26;23;
45990;PMS5003;31721;41.740;-88.000;2023-06-14T07:42:16;28;26;
45990;PMS5003;31721;41.740;-88.000;2023-06-14T07:44:44;33;32;
45990;PMS5003;31721;41.740;-88.000;2023-06-14T07:47:11;36;28;
45990;PMS5003;31721;41.740;-88.000;2023-06-14T07:49:39;35;32;
45990;PMS5003;31721;41.740;-88.000;2023-06-14T07:52:06;30;27;
45990;PMS5003;31721;41.740;-88.000;2023-06-14T07:54:34;30;28;
45990;PMS5003;31721;41.740;-88.000;2023-06-14T07:57:02;31;27;
45990;PMS5003;31721;41.740;-88.000;2023-06-14T07:59:30;34;30;
45990;PMS5003;31721;41.740;-88.000;2023-06-14T08:01:57;29;28;
45990;PMS5003;31721;41.740;-88.000;2023-06-14T08:04:26;30;27;
45990;PMS5003;31721;41.740;-88.000;2023-06-14T08:06:53;28;24;
45990;PMS5003;31721;41.740;-88.000;2023-06-14T08:09:20;22;20;
45990;PMS5003;31721;41.740;-88.000;2023-06-14T08:11:48;29;26;
45990;PMS5003;31721;41.740;-88.000;2023-06-14T08:14:16;28;25;
45990;PMS5003;31721;41.740;-88.000;2023-06-14T08:16:44;28;28;
45990;PMS5003;31721;41.740;-88.000;2023-06-14T08:19:12;24;22;
45990;PMS5003;31721;41.740;-88.000;2023-06-14T08:21:39;21;19;
45990;PMS5003;31721;41.740;-88.000;2023-06-14T08:24:07;27;25;
45990;PMS5003;31721;41.740;-88.000;2023-06-14T08:26:35;27;23;
45990;PMS5003;31721;41.740;-88.000;2023-06-14T08:29:02;22;17;
45990;PMS5003;31721;41.740;-88.000;2023-06-14T08:31:30;24;24;
45990;PMS5003;31721;41.740;-88.000;2023-06-14T08:33:57;23;21;
45990;PMS5003;31721;41.740;-88.000;2023-06-14T08:36:25;24;19;
45990;PMS5003;31721;41.740;-88.000;2023-06-14T08:38:53;25;24;
45990;PMS5003;31721;41.740;-88.000;2023-06-14T08:41:21;27;23;
45990;PMS5003;31721;41.740;-88.000;2023-06-14T08:43:49;22;20;
45990;PMS5003;31721;41.740;-88.000;2023-06-14T08:46:17;23;19;
45990;PMS5003;31721;41.740;-88.000;2023-06-14T08:48:46;18;17;
45990;PMS5003;31721;41.740;-88.000;2023-06-14T08:51:16;29;27;
45990;PMS5003;31721;41.740;-88.000;2023-06-14T08:53:46;22;17;
45990;PMS5003;31721;41.740;-88.000;2023-06-14T08:56:19;25;22;
45990;PMS5003;31721;41.740;-88.000;2023-06-14T08:58:46;22;21;
45990;PMS5003;31721;41.740;-88.000;2023-06-14T09:01:15;20;17;
45990;PMS5003;31721;41.740;-88.000;2023-06-14T09:03:43;28;25;
45990;PMS5003;31721;41.740;-88.000;2023-06-14T09:06:11;27;23;
45990;PMS5003;31721;41.740;-88.000;2023-06-14T09:08:40;28;23;
45990;PMS5003;31721;41.740;-88.000;2023-06-14T09:11:10;27;25;
45990;PMS5003;31721;41.740;-88.000;2023-06-14T09:13:38;23;21;
45990;PMS5003;31721;41.740;-88.000;2023-06-14T09:16:07;22;21;
45990;PMS5003;31721;41.740;-88.000;2023-06-14T09:18:35;23;20;
45990;PMS5003;31721;41.740;-88.000;2023-06-14T09:21:05;22;18;
45990;PMS5003;31721;41.740;-88.000;2023-06-14T09:23:36;24;23;
45990;PMS5003;31721;41.740;-88.000;2023-06-14T09:26:07;26;21;
45990;PMS5003;31721;41.740;-88.000;2023-06-14T09:28:35;19;19;
45990;PMS5003;31721;41.740;-88.000;2023-06-14T09:31:07;27;23;
45990;PMS5003;31721;41.740;-88.000;2023-06-14T09:33:35;26;25;
45990;PMS5003;31721;41.740;-88.000;2023-06-14T09:36:04;25;22;
45990;PMS5003;31721;41.740;-88.000;2023-06-14T09:38:36;26;26;
45990;PMS5003;31721;41.740;-88.000;2023-06-14T09:41:06;30;27;
45990;PMS5003;31721;41.740;-88.000;2023-06-14T09:43:33;23;18;
45990;PMS5003;31721;41.740;-88.000;2023-06-14T09:46:01;32;29;
45990;PMS5003;31721;41.740;-88.000;2023-06-14T09:48:29;27;24;
45990;PMS5003;31721;41.740;-88.000;2023-06-14T09:50:57;19;18;
45990;PMS5003;31721;41.740;-88.000;2023-06-14T09:53:26;23;20;
45990;PMS5003;31721;41.740;-88.000;2023-06-14T09:55:56;29;24;
45990;PMS5003;31721;41.740;-88.000;2023-06-14T09:58:25;25;23;
45990;PMS5003;31721;41.740;-88.000;2023-06-14T10:00:54;29;28;
45990;PMS5003;31721;41.740;-88.000;2023-06-14T10:03:25;24;22;
45990;PMS5003;31721;41.740;-88.000;2023-06-14T10:05:55;31;25;
45990;PMS5003;31721;41.740;-88.000;2023-06-14T10:08:30;22;20;
45990;PMS5003;31721;41.740;-88.000;2023-06-14T10:10:59;25;24;
45990;PMS5003;31721;41.740;-88.000;2023-06-14T10:13:26;20;20;
45990;PMS5003;31721;41.740;-88.000;2023-06-14T10:15:58;26;22;
45990;PMS5003;31721;41.740;-88.000;2023-06-14T10:18:35;25;25;
45990;PMS5003;31721;41.740;-88.000;2023-06-14T10:21:16;24;23;
45990;PMS5003;31721;41.740;-88.000;2023-06-14T10:23:49;23;20;
45990;PMS5003;31721;41.740;-88.000;2023-06-14T10:26:19;29;23;
45990;PMS5003;31721;41.740;-88.000;2023-06-14T10:28:55;26;24;
45990;PMS5003;31721;41.740;-88.000;2023-06-14T10:31:40;24;22;
45990;PMS5003;31721;41.740;-88.000;2023-06-14T10:34:08;30;26;
45990;PMS5003;31721;41.740;-88.000;2023-06-14T10:36:41;17;16;
45990;PMS5003;31721;41.740;-88.000;2023-06-14T10:39:15;27;22;
45990;PMS5003;31721;41.740;-88.000;2023-06-14T10:41:50;26;25;
45990;PMS5003;31721;41.740;-88.000;2023-06-14T10:44:54;24;23;
45990;PMS5003;31721;41.740;-88.000;2023-06-14T10:47:23;23;21;
45990;PMS5003;31721;41.740;-88.000;2023-06-14T10:49:53;25;23;
45990;PMS5003;31721;41.740;-88.000;2023-06-14T10:52:24;31;28;
45990;PMS5003;31721;41.740;-88.000;2023-06-14T10:54:59;27;25;
45990;PMS5003;31721;41.740;-88.000;2023-06-14T10:57:28;25;23;
45990;PMS5003;31721;41.740;-88.000;2023-06-14T10:59:56;25;22;
45990;PMS5003;31721;41.740;-88.000;2023-06-14T11:02:33;28;24;
45990;PMS5003;31721;41.740;-88.000;2023-06-14T11:05:14;22;19;
45990;PMS5003;31721;41.740;-88.000;2023-06-14T11:10:40;20;17;
45990;PMS5003;31721;41.740;-88.000;2023-06-14T11:13:10;24;21;
45990;PMS5003;31721;41.740;-88.000;2023-06-14T11:15:38;21;21;
45990;PMS5003;31721;41.740;-88.000;2023-06-14T11:18:12;25;20;
45990;PMS5003;31721;41.740;-88.000;2023-06-14T11:20:41;18;17;
45990;PMS5003;31721;41.740;-88.000;2023-06-14T11:23:08;23;21;
45990;PMS5003;31721;41.740;-88.000;2023-06-14T11:25:36;18;18;
45990;PMS5003;31721;41.740;-88.000;2023-06-14T11:28:04;19;19;
45990;PMS5003;31721;41.740;-88.000;2023-06-14T11:30:32;14;14;
45990;PMS5003;31721;41.740;-88.000;2023-06-14T11:32:59;15;12;
45990;PMS5003;31721;41.740;-88.000;2023-06-14T11:35:28;14;13;
45990;PMS5003;31721;41.740;-88.000;2023-06-14T11:37:55;15;14;
45990;PMS5003;31721;41.740;-88.000;2023-06-14T11:40:24;16;12;
45990;PMS5003;31721;41.740;-88.000;2023-06-14T11:42:58;13;13;
45990;PMS5003;31721;41.740;-88.000;2023-06-14T11:45:27;13;13;
45990;PMS5003;31721;41.740;-88.000;2023-06-14T11:47:55;14;12;
45990;PMS5003;31721;41.740;-88.000;2023-06-14T11:50:25;12;11;
45990;PMS5003;31721;41.740;-88.000;2023-06-14T11:52:53;13;13;
45990;PMS5003;31721;41.740;-88.000;2023-06-14T11:55:21;9;9;
45990;PMS5003;31721;41.740;-88.000;2023-06-14T11:57:50;11;10;
45990;PMS5003;31721;41.740;-88.000;2023-06-14T12:00:22;16;15;
45990;PMS5003;31721;41.740;-88.000;2023-06-14T12:02:52;12;12;
45990;PMS5003;31721;41.740;-88.000;2023-06-14T12:05:21;13;13;
45990;PMS5003;31721;41.740;-88.000;2023-06-14T12:07:50;16;14;
45990;PMS5003;31721;41.740;-88.000;2023-06-14T12:10:24;12;11;
45990;PMS5003;31721;41.740;-88.000;2023-06-14T12:12:56;12;9;
45990;PMS5003;31721;41.740;-88.000;2023-06-14T12:15:27;11;11;
45990;PMS5003;31721;41.740;-88.000;2023-06-14T12:17:55;15;15;
45990;PMS5003;31721;41.740;-88.000;2023-06-14T12:20:28;15;14;
45990;PMS5003;31721;41.740;-88.000;2023-06-14T12:22:57;10;9;
45990;PMS5003;31721;41.740;-88.000;2023-06-14T12:25:27;11;11;
45990;PMS5003;31721;41.740;-88.000;2023-06-14T12:27:56;13;12;
45990;PMS5003;31721;41.740;-88.000;2023-06-14T12:30:25;11;11;
45990;PMS5003;31721;41.740;-88.000;2023-06-14T12:32:53;12;12;
45990;PMS5003;31721;41.740;-88.000;2023-06-14T12:35:20;11;11;
45990;PMS5003;31721;41.740;-88.000;2023-06-14T12:37:48;12;12;
45990;PMS5003;31721;41.740;-88.000;2023-06-14T12:40:16;10;10;
45990;PMS5003;31721;41.740;-88.000;2023-06-14T12:42:44;11;11;
45990;PMS5003;31721;41.740;-88.000;2023-06-14T12:45:12;13;11;
45990;PMS5003;31721;41.740;-88.000;2023-06-14T12:47:40;13;12;
45990;PMS5003;31721;41.740;-88.000;2023-06-14T12:50:08;13;13;
45990;PMS5003;31721;41.740;-88.000;2023-06-14T12:52:36;13;12;
45990;PMS5003;31721;41.740;-88.000;2023-06-14T12:55:05;13;13;
45990;PMS5003;31721;41.740;-88.000;2023-06-14T12:57:33;12;12;
45990;PMS5003;31721;41.740;-88.000;2023-06-14T13:00:01;19;10;
45990;PMS5003;31721;41.740;-88.000;2023-06-14T13:02:30;13;11;
45990;PMS5003;31721;41.740;-88.000;2023-06-14T13:04:57;19;17;
45990;PMS5003;31721;41.740;-88.000;2023-06-14T13:07:25;13;11;
45990;PMS5003;31721;41.740;-88.000;2023-06-14T13:09:53;20;13;
45990;PMS5003;31721;41.740;-88.000;2023-06-14T13:12:21;20;18;
45990;PMS5003;31721;41.740;-88.000;2023-06-14T13:14:48;18;16;
45990;PMS5003;31721;41.740;-88.000;2023-06-14T13:17:16;20;18;
45990;PMS5003;31721;41.740;-88.000;2023-06-14T13:19:44;15;15;
45990;PMS5003;31721;41.740;-88.000;2023-06-14T13:22:12;18;17;
45990;PMS5003;31721;41.740;-88.000;2023-06-14T13:24:40;19;19;
45990;PMS5003;31721;41.740;-88.000;2023-06-14T13:27:08;20;17;
45990;PMS5003;31721;41.740;-88.000;2023-06-14T13:29:35;15;15;
45990;PMS5003;31721;41.740;-88.000;2023-06-14T13:32:03;18;13;
45990;PMS5003;31721;41.740;-88.000;2023-06-14T13:34:32;16;16;
45990;PMS5003;31721;41.740;-88.000;2023-06-14T13:36:59;21;19;
45990;PMS5003;31721;41.740;-88.000;2023-06-14T13:39:27;11;11;
45990;PMS5003;31721;41.740;-88.000;2023-06-14T13:41:54;14;13;
45990;PMS5003;31721;41.740;-88.000;2023-06-14T13:44:22;14;13;
45990;PMS5003;31721;41.740;-88.000;2023-06-14T13:46:50;18;16;
45990;PMS5003;31721;41.740;-88.000;2023-06-14T13:49:17;18;15;
45990;PMS5003;31721;41.740;-88.000;2023-06-14T13:51:45;11;10;
45990;PMS5003;31721;41.740;-88.000;2023-06-14T13:54:13;13;13;
45990;PMS5003;31721;41.740;-88.000;2023-06-14T13:56:41;19;14;
45990;PMS5003;31721;41.740;-88.000;2023-06-14T13:59:09;12;11;
45990;PMS5003;31721;41.740;-88.000;2023-06-14T14:01:37;17;16;
45990;PMS5003;31721;41.740;-88.000;2023-06-14T14:04:05;14;11;
45990;PMS5003;31721;41.740;-88.000;2023-06-14T14:06:33;18;18;
45990;PMS5003;31721;41.740;-88.000;2023-06-14T14:09:01;17;13;
45990;PMS5003;31721;41.740;-88.000;2023-06-14T14:11:29;24;24;
45990;PMS5003;31721;41.740;-88.000;2023-06-14T14:13:57;14;12;
45990;PMS5003;31721;41.740;-88.000;2023-06-14T14:16:25;22;19;
45990;PMS5003;31721;41.740;-88.000;2023-06-14T14:18:53;18;18;
45990;PMS5003;31721;41.740;-88.000;2023-06-14T14:21:21;14;13;
45990;PMS5003;31721;41.740;-88.000;2023-06-14T14:23:49;21;20;
45990;PMS5003;31721;41.740;-88.000;2023-06-14T14:26:17;30;28;
45990;PMS5003;31721;41.740;-88.000;2023-06-14T14:28:44;46;45;
45990;PMS5003;31721;41.740;-88.000;2023-06-14T14:31:13;23;19;
45990;PMS5003;31721;41.740;-88.000;2023-06-14T14:33:41;35;33;
45990;PMS5003;31721;41.740;-88.000;2023-06-14T14:36:09;18;17;
45990;PMS5003;31721;41.740;-88.000;2023-06-14T14:38:36;24;21;
45990;PMS5003;31721;41.740;-88.000;2023-06-14T14:41:04;31;30;
45990;PMS5003;31721;41.740;-88.000;2023-06-14T14:43:32;26;25;
45990;PMS5003;31721;41.740;-88.000;2023-06-14T14:45:59;21;18;
45990;PMS5003;31721;41.740;-88.000;2023-06-14T14:48:27;19;18;
45990;PMS5003;31721;41.740;-88.000;2023-06-14T14:50:55;17;16;
45990;PMS5003;31721;41.740;-88.000;2023-06-14T14:53:22;18;17;
45990;PMS5003;31721;41.740;-88.000;2023-06-14T14:55:51;14;14;
45990;PMS5003;31721;41.740;-88.000;2023-06-14T14:58:18;18;18;
45990;PMS5003;31721;41.740;-88.000;2023-06-14T15:00:46;17;17;
45990;PMS5003;31721;41.740;-88.000;2023-06-14T15:03:15;14;14;
45990;PMS5003;31721;41.740;-88.000;2023-06-14T15:05:42;30;28;
45990;PMS5003;31721;41.740;-88.000;2023-06-14T15:08:11;11;10;
45990;PMS5003;31721;41.740;-88.000;2023-06-14T15:10:38;18;16;
45990;PMS5003;31721;41.740;-88.000;2023-06-14T15:13:07;13;11;
45990;PMS5003;31721;41.740;-88.000;2023-06-14T15:15:35;20;20;
45990;PMS5003;31721;41.740;-88.000;2023-06-14T15:18:03;18;18;
45990;PMS5003;31721;41.740;-88.000;2023-06-14T15:20:31;15;13;
45990;PMS5003;31721;41.740;-88.000;2023-06-14T15:22:59;14;14;
45990;PMS5003;31721;41.740;-88.000;2023-06-14T15:25:27;18;17;
45990;PMS5003;31721;41.740;-88.000;2023-06-14T15:27:56;18;16;
45990;PMS5003;31721;41.740;-88.000;2023-06-14T15:30:24;17;15;
45990;PMS5003;31721;41.740;-88.000;2023-06-14T15:32:52;17;15;
45990;PMS5003;31721;41.740;-88.000;2023-06-14T15:35:20;19;19;
45990;PMS5003;31721;41.740;-88.000;2023-06-14T15:37:48;18;17;
45990;PMS5003;31721;41.740;-88.000;2023-06-14T15:40:16;26;21;
45990;PMS5003;31721;41.740;-88.000;2023-06-14T15:42:43;20;16;
45990;PMS5003;31721;41.740;-88.000;2023-06-14T15:45:12;21;18;
45990;PMS5003;31721;41.740;-88.000;2023-06-14T15:47:40;18;18;
45990;PMS5003;31721;41.740;-88.000;2023-06-14T15:50:08;22;20;
45990;PMS5003;31721;41.740;-88.000;2023-06-14T15:52:37;20;19;
45990;PMS5003;31721;41.740;-88.000;2023-06-14T15:55:05;17;16;
45990;PMS5003;31721;41.740;-88.000;2023-06-14T15:57:33;22;17;
45990;PMS5003;31721;41.740;-88.000;2023-06-14T16:00:02;25;24;